createdAt,value
2022-10-01T00:02:51.000Z,4.4
2022-10-01T00:32:54.000Z,4.2
2022-10-01T01:02:58.000Z,4.4
2022-10-01T01:33:00.000Z,4.3
2022-10-01T02:03:11.412Z,4.2
2022-10-01T02:33:18.000Z,4.4
2022-10-01T03:03:23.000Z,4.3
2022-10-01T03:33:27.000Z,4.1
2022-10-01T04:03:30.000Z,4.1
2022-10-01T04:33:33.000Z,4.2
2022-10-01T05:03:37.000Z,4.5
2022-10-01T05:33:48.000Z,4.9
2022-10-01T06:03:49.372Z,5.2
2022-10-01T06:33:52.292Z,5.6
2022-10-01T07:03:56.000Z,6.6
2022-10-01T07:33:58.000Z,7.5
2022-10-01T08:04:24.000Z,8.4
2022-10-01T08:34:27.000Z,9.2
2022-10-01T09:04:33.000Z,9.9
2022-10-01T09:34:34.000Z,10.6
2022-10-01T10:04:37.000Z,10.6
2022-10-01T10:34:44.000Z,10.8
2022-10-01T11:04:47.000Z,10.9
2022-10-01T11:34:48.000Z,11.2
2022-10-01T12:04:57.000Z,11.5
2022-10-01T12:35:02.000Z,12.2
2022-10-01T13:05:12.000Z,12.7
2022-10-01T13:35:13.000Z,13.2
2022-10-01T14:05:24.000Z,13.3
2022-10-01T14:35:25.000Z,13.2
2022-10-01T15:05:35.000Z,13.1
2022-10-01T15:35:40.000Z,13.2
2022-10-01T16:05:50.000Z,13.5
2022-10-01T16:35:57.000Z,13.4
2022-10-01T17:05:58.000Z,12.5
2022-10-01T17:36:03.000Z,11.7
2022-10-01T18:06:06.000Z,10.6
2022-10-01T18:36:06.000Z,10.5
2022-10-01T19:06:09.000Z,11.9
2022-10-01T19:36:13.000Z,11.7
2022-10-01T20:06:26.000Z,11.4
2022-10-01T20:36:30.000Z,11.6
2022-10-01T21:06:35.000Z,12.3
2022-10-01T21:36:40.000Z,11.6
2022-10-01T22:06:42.000Z,11.5
2022-10-01T22:36:50.282Z,11.6
2022-10-01T23:06:53.000Z,11.7
2022-10-01T23:36:54.000Z,11.7
